Time;durP1;ratioP1;P1;durP2;ratioP2;P2;SDS_P1;SDS_P2;PMS_P1;PMS_P2;Temp;Humidity;BMP_temperature;BMP_pressure;BME280_temperature;BME280_humidity;BME280_pressure;Samples;Min_cycle;Max_cycle;Signal;HPM_P1;HPM_P2
2022/01/29 00:00:07;;;;;;;88.70;49.67;;;;;;;;;;4957292;28;21578;-79
2022/01/29 00:02:33;;;;;;;93.23;50.73;;;;;;;;;;4957293;28;20437;-79
2022/01/29 00:05:00;;;;;;;91.40;50.93;;;;;;;;;;4956184;28;21417;-79
2022/01/29 00:07:26;;;;;;;97.67;52.17;;;;;;;;;;4970092;28;20429;-79
2022/01/29 00:10:00;;;;;;;90.63;50.30;;;;;;;;;;4954064;28;21299;-79
2022/01/29 00:12:26;;;;;;;82.50;46.37;;;;;;;;;;4957147;28;20437;-79
2022/01/29 00:14:52;;;;;;;78.13;43.23;;;;;;;;;;4954916;28;20453;-79
2022/01/29 00:17:18;;;;;;;94.17;50.20;;;;;;;;;;4955194;28;20430;-79
2022/01/29 00:19:44;;;;;;;89.17;47.97;;;;;;;;;;4956535;28;20442;-79
2022/01/29 00:22:10;;;;;;;99.33;52.17;;;;;;;;;;4952327;28;20430;-79
2022/01/29 00:24:36;;;;;;;95.30;51.53;;;;;;;;;;4955259;28;20513;-79
2022/01/29 00:27:08;;;;;;;93.97;49.80;;;;;;;;;;4953669;28;20425;-79
2022/01/29 00:29:35;;;;;;;95.10;50.37;;;;;;;;;;4951099;28;20469;-79
2022/01/29 00:32:01;;;;;;;79.50;45.03;;;;;;;;;;4953118;28;20421;-79
2022/01/29 00:34:27;;;;;;;70.97;42.63;;;;;;;;;;4958118;28;20458;-79
2022/01/29 00:36:53;;;;;;;71.43;42.50;;;;;;;;;;4954832;28;20418;-79
2022/01/29 00:39:19;;;;;;;77.63;44.87;;;;;;;;;;4968386;28;20509;-79
2022/01/29 00:41:45;;;;;;;89.03;48.17;;;;;;;;;;4956638;28;20506;-79
2022/01/29 00:44:11;;;;;;;81.23;46.20;;;;;;;;;;4956398;28;21395;-79
2022/01/29 00:46:41;;;;;;;72.57;43.03;;;;;;;;;;4955349;28;20492;-79
2022/01/29 00:49:07;;;;;;;73.83;41.83;;;;;;;;;;4954969;28;20430;-79
2022/01/29 00:51:33;;;;;;;89.90;48.37;;;;;;;;;;4955746;28;21244;-79
2022/01/29 00:53:59;;;;;;;78.10;43.30;;;;;;;;;;4968257;28;20453;-79
2022/01/29 00:56:25;;;;;;;133.90;49.33;;;;;;;;;;4954079;28;20496;-79
2022/01/29 00:58:51;;;;;;;92.30;47.70;;;;;;;;;;4955318;28;21252;-79
2022/01/29 01:01:17;;;;;;;83.90;45.20;;;;;;;;;;4954181;28;20452;-79
2022/01/29 01:03:44;;;;;;;113.20;49.03;;;;;;;;;;4955893;28;20508;-79
2022/01/29 01:06:10;;;;;;;80.57;45.00;;;;;;;;;;4954614;28;21056;-79
2022/01/29 01:08:36;;;;;;;159.23;50.50;;;;;;;;;;4955194;28;20426;-79
2022/01/29 01:11:03;;;;;;;71.43;41.27;;;;;;;;;;4956385;28;20515;-79
2022/01/29 01:13:30;;;;;;;72.73;41.67;;;;;;;;;;4950780;28;20462;-79
2022/01/29 01:15:56;;;;;;;162.50;53.03;;;;;;;;;;4951939;28;20425;-79
2022/01/29 01:18:22;;;;;;;73.27;41.57;;;;;;;;;;4955525;28;21035;-79
2022/01/29 01:20:48;;;;;;;82.47;45.40;;;;;;;;;;4956270;28;20450;-79
2022/01/29 01:23:14;;;;;;;237.23;57.63;;;;;;;;;;4953684;28;20554;-79
2022/01/29 01:25:40;;;;;;;74.70;42.40;;;;;;;;;;4954332;28;20418;-79
2022/01/29 01:28:06;;;;;;;81.93;44.97;;;;;;;;;;4953138;28;21318;-79
2022/01/29 01:30:33;;;;;;;76.17;44.00;;;;;;;;;;4968891;28;20418;-79
2022/01/29 01:33:02;;;;;;;137.07;52.50;;;;;;;;;;4953949;28;20422;-79
2022/01/29 01:35:34;;;;;;;73.57;43.13;;;;;;;;;;4955173;28;20517;-79
2022/01/29 01:38:20;;;;;;;87.23;44.90;;;;;;;;;;4953799;28;20422;-79
2022/01/29 01:40:55;;;;;;;76.80;43.70;;;;;;;;;;4955122;28;21183;-79
2022/01/29 01:43:21;;;;;;;144.53;49.47;;;;;;;;;;4953567;28;21379;-79
2022/01/29 01:45:47;;;;;;;66.40;40.53;;;;;;;;;;4955374;28;20430;-79
2022/01/29 01:48:13;;;;;;;89.37;40.87;;;;;;;;;;4952814;28;20516;-79
2022/01/29 01:50:39;;;;;;;80.93;39.97;;;;;;;;;;4956320;28;20428;-79
2022/01/29 01:53:06;;;;;;;120.47;43.50;;;;;;;;;;4954826;28;20493;-79
2022/01/29 01:55:32;;;;;;;62.27;39.23;;;;;;;;;;4956763;28;20521;-79
2022/01/29 01:57:58;;;;;;;60.20;37.07;;;;;;;;;;4951193;28;20438;-79
2022/01/29 02:00:28;;;;;;;61.43;35.33;;;;;;;;;;4951890;28;20521;-79
2022/01/29 02:02:54;;;;;;;58.63;35.30;;;;;;;;;;4951643;28;21156;-79
2022/01/29 02:05:21;;;;;;;64.90;39.47;;;;;;;;;;4960033;28;20485;-79
2022/01/29 02:07:47;;;;;;;65.83;39.13;;;;;;;;;;4958968;28;20426;-79
2022/01/29 02:10:14;;;;;;;65.50;39.27;;;;;;;;;;4956241;28;20430;-79
2022/01/29 02:12:56;;;;;;;76.27;42.23;;;;;;;;;;4956748;28;21149;-79
2022/01/29 02:15:23;;;;;;;149.33;47.73;;;;;;;;;;4957552;28;20569;-79
2022/01/29 02:17:49;;;;;;;74.10;41.47;;;;;;;;;;4951495;28;20430;-79
2022/01/29 02:20:16;;;;;;;88.83;38.33;;;;;;;;;;4955285;28;20418;-79
2022/01/29 02:22:43;;;;;;;68.67;39.13;;;;;;;;;;4952340;28;20418;-79
2022/01/29 02:25:32;;;;;;;66.63;38.83;;;;;;;;;;4958048;28;20422;-79
2022/01/29 02:28:02;;;;;;;99.77;44.13;;;;;;;;;;4956373;28;20538;-79
2022/01/29 02:30:31;;;;;;;60.37;35.67;;;;;;;;;;4957560;28;20425;-79
2022/01/29 02:32:58;;;;;;;97.23;46.13;;;;;;;;;;4956971;28;20422;-79
2022/01/29 02:35:24;;;;;;;65.13;38.80;;;;;;;;;;4954052;28;20469;-79
2022/01/29 02:37:52;;;;;;;64.93;38.10;;;;;;;;;;4955649;28;20418;-79
2022/01/29 02:40:19;;;;;;;60.33;36.07;;;;;;;;;;4968398;28;20544;-79
2022/01/29 02:42:45;;;;;;;115.53;40.27;;;;;;;;;;4959517;28;20420;-79
2022/01/29 02:45:12;;;;;;;59.60;36.20;;;;;;;;;;4953383;28;20418;-79
2022/01/29 02:47:38;;;;;;;60.50;35.03;;;;;;;;;;4959443;28;20845;-79
2022/01/29 02:50:04;;;;;;;67.43;39.43;;;;;;;;;;4960060;28;20426;-79
2022/01/29 02:52:30;;;;;;;60.40;36.67;;;;;;;;;;4956828;28;20421;-79
2022/01/29 02:54:56;;;;;;;81.13;43.87;;;;;;;;;;4957433;28;20885;-79
2022/01/29 02:57:22;;;;;;;75.53;41.57;;;;;;;;;;4957418;28;20548;-79
2022/01/29 02:59:49;;;;;;;73.50;40.17;;;;;;;;;;4956453;28;21239;-79
2022/01/29 03:02:15;;;;;;;71.30;40.57;;;;;;;;;;4956332;28;20433;-79
2022/01/29 03:04:41;;;;;;;75.50;42.70;;;;;;;;;;4968336;28;20450;-79
2022/01/29 03:07:07;;;;;;;74.17;42.10;;;;;;;;;;4954720;28;20504;-79
2022/01/29 03:09:33;;;;;;;137.00;49.53;;;;;;;;;;4956314;28;20484;-79
2022/01/29 03:11:59;;;;;;;126.87;48.13;;;;;;;;;;4955689;28;21245;-79
2022/01/29 03:14:25;;;;;;;198.40;58.20;;;;;;;;;;4956803;28;21229;-79
2022/01/29 03:16:52;;;;;;;144.10;52.40;;;;;;;;;;4954368;28;20430;-78
2022/01/29 03:19:18;;;;;;;310.57;59.40;;;;;;;;;;4957081;28;21426;-79
2022/01/29 03:21:44;;;;;;;602.47;72.87;;;;;;;;;;4957652;28;21227;-79
2022/01/29 03:24:10;;;;;;;245.20;52.83;;;;;;;;;;4953610;28;20430;-79
2022/01/29 03:26:36;;;;;;;94.93;47.53;;;;;;;;;;4955624;28;20422;-78
2022/01/29 03:29:02;;;;;;;77.97;42.00;;;;;;;;;;4956686;28;20414;-79
2022/01/29 03:31:29;;;;;;;102.30;44.10;;;;;;;;;;4955392;28;20441;-79
2022/01/29 03:33:55;;;;;;;137.87;47.10;;;;;;;;;;4950994;28;20465;-79
2022/01/29 03:36:21;;;;;;;97.57;44.53;;;;;;;;;;4956773;28;20418;-79
2022/01/29 03:38:47;;;;;;;106.03;48.37;;;;;;;;;;4955044;28;20508;-79
2022/01/29 03:41:14;;;;;;;122.63;49.23;;;;;;;;;;4957556;28;20421;-79
2022/01/29 03:43:45;;;;;;;103.53;46.13;;;;;;;;;;4957781;28;20540;-78
2022/01/29 03:46:12;;;;;;;380.33;63.23;;;;;;;;;;4957578;28;21014;-79
2022/01/29 03:48:38;;;;;;;229.80;57.80;;;;;;;;;;4952451;28;20435;-78
2022/01/29 03:51:04;;;;;;;82.40;43.00;;;;;;;;;;4954321;28;21404;-79
2022/01/29 03:53:30;;;;;;;133.23;47.53;;;;;;;;;;4956776;28;21076;-79
2022/01/29 03:55:56;;;;;;;94.80;44.50;;;;;;;;;;4957225;28;20453;-79
2022/01/29 03:58:22;;;;;;;76.80;36.90;;;;;;;;;;4952738;28;20417;-79
2022/01/29 04:00:48;;;;;;;63.77;36.07;;;;;;;;;;4951405;28;20427;-78
2022/01/29 04:03:14;;;;;;;69.77;35.97;;;;;;;;;;4958859;28;20418;-78
2022/01/29 04:05:40;;;;;;;62.17;37.30;;;;;;;;;;4954889;28;21139;-78
2022/01/29 04:08:14;;;;;;;62.57;35.43;;;;;;;;;;4955475;28;20422;-77
2022/01/29 04:10:40;;;;;;;69.53;38.80;;;;;;;;;;4955564;28;20438;-78
2022/01/29 04:13:09;;;;;;;65.30;37.90;;;;;;;;;;4973049;28;20970;-78
2022/01/29 04:15:35;;;;;;;85.60;40.33;;;;;;;;;;4954335;28;20422;-77
2022/01/29 04:18:01;;;;;;;79.20;38.10;;;;;;;;;;4956337;28;20419;-77
2022/01/29 04:20:27;;;;;;;73.60;40.13;;;;;;;;;;4953607;28;20426;-78
2022/01/29 04:22:53;;;;;;;72.27;39.97;;;;;;;;;;4956999;28;20414;-78
2022/01/29 04:25:19;;;;;;;66.47;38.40;;;;;;;;;;4953584;28;20434;-77
2022/01/29 04:27:47;;;;;;;110.13;43.70;;;;;;;;;;4954115;28;21083;-78
2022/01/29 04:30:26;;;;;;;110.87;47.33;;;;;;;;;;4965567;28;20537;-78
2022/01/29 04:35:18;;;;;;;78.43;40.90;;;;;;;;;;4955174;28;21349;-78
2022/01/29 04:37:44;;;;;;;196.67;51.00;;;;;;;;;;4956178;28;20492;-78
2022/01/29 04:40:10;;;;;;;73.63;39.90;;;;;;;;;;4954381;28;20465;-77
2022/01/29 04:42:37;;;;;;;90.10;41.70;;;;;;;;;;4955224;28;20422;-77
2022/01/29 04:45:03;;;;;;;271.67;58.50;;;;;;;;;;4954463;28;21192;-77
2022/01/29 04:47:29;;;;;;;68.13;39.20;;;;;;;;;;4956926;28;20422;-78
2022/01/29 04:49:55;;;;;;;72.23;39.97;;;;;;;;;;4950650;28;20499;-78
2022/01/29 04:52:21;;;;;;;71.43;38.80;;;;;;;;;;4953778;28;20442;-77
2022/01/29 04:54:47;;;;;;;67.23;37.57;;;;;;;;;;4949006;28;20469;-78
2022/01/29 04:57:13;;;;;;;71.90;39.10;;;;;;;;;;4971734;28;20422;-78
2022/01/29 04:59:39;;;;;;;73.60;41.33;;;;;;;;;;4954250;28;21179;-78
2022/01/29 05:02:06;;;;;;;60.27;34.97;;;;;;;;;;4954707;28;20460;-78
2022/01/29 05:04:32;;;;;;;65.43;37.67;;;;;;;;;;4953502;28;21110;-78
2022/01/29 05:06:58;;;;;;;64.33;36.83;;;;;;;;;;4954445;28;21174;-78
2022/01/29 05:09:24;;;;;;;57.07;33.87;;;;;;;;;;4954662;28;20492;-78
2022/01/29 05:11:52;;;;;;;69.17;38.53;;;;;;;;;;4968700;28;20423;-77
2022/01/29 05:14:29;;;;;;;65.53;37.87;;;;;;;;;;4951099;28;20453;-78
2022/01/29 05:27:54;;;;;;;68.07;37.53;;;;;;;;;;4952069;28;20481;-78
2022/01/29 05:30:20;;;;;;;75.30;37.40;;;;;;;;;;4954331;28;20484;-79
2022/01/29 05:32:46;;;;;;;71.43;38.70;;;;;;;;;;4953248;28;20520;-78
2022/01/29 05:35:12;;;;;;;64.13;34.90;;;;;;;;;;4955179;28;20469;-78
2022/01/29 05:37:39;;;;;;;68.30;37.67;;;;;;;;;;4955134;28;20538;-78
2022/01/29 05:40:14;;;;;;;80.00;40.80;;;;;;;;;;4962848;28;20429;-79
2022/01/29 05:42:55;;;;;;;78.07;41.20;;;;;;;;;;4964044;28;20420;-79
2022/01/29 05:45:21;;;;;;;70.47;39.00;;;;;;;;;;4957962;28;20456;-79
2022/01/29 05:47:47;;;;;;;77.73;40.00;;;;;;;;;;4958868;28;20925;-79
2022/01/29 05:50:13;;;;;;;65.00;35.30;;;;;;;;;;4971908;28;20479;-79
2022/01/29 05:52:39;;;;;;;74.30;37.40;;;;;;;;;;4956344;28;20567;-79
2022/01/29 05:55:06;;;;;;;69.67;37.00;;;;;;;;;;4956898;28;20465;-79
2022/01/29 05:57:32;;;;;;;65.87;35.47;;;;;;;;;;4957819;28;21235;-80
2022/01/29 05:59:58;;;;;;;71.57;38.17;;;;;;;;;;4956716;28;21300;-80
2022/01/29 06:02:24;;;;;;;76.37;37.93;;;;;;;;;;4955663;28;21189;-80
2022/01/29 06:04:50;;;;;;;68.60;36.40;;;;;;;;;;4951087;28;20442;-80
2022/01/29 06:07:16;;;;;;;55.70;32.53;;;;;;;;;;4956998;28;21033;-80
2022/01/29 06:09:42;;;;;;;59.37;33.13;;;;;;;;;;4955021;28;20448;-80
2022/01/29 06:12:08;;;;;;;64.13;33.93;;;;;;;;;;4955450;28;20429;-80
2022/01/29 06:14:34;;;;;;;60.03;34.73;;;;;;;;;;4953904;28;20512;-80
2022/01/29 06:17:01;;;;;;;55.63;33.13;;;;;;;;;;4951310;28;20441;-80
2022/01/29 06:19:27;;;;;;;58.33;34.83;;;;;;;;;;4957499;28;20437;-80
2022/01/29 06:21:53;;;;;;;56.07;33.37;;;;;;;;;;4956026;28;20533;-80
2022/01/29 06:24:19;;;;;;;61.07;34.60;;;;;;;;;;4953111;28;20434;-80
2022/01/29 06:26:45;;;;;;;54.07;32.60;;;;;;;;;;4956281;28;21114;-81
2022/01/29 06:29:11;;;;;;;58.73;33.53;;;;;;;;;;4953243;28;20434;-80
2022/01/29 06:31:37;;;;;;;58.17;35.10;;;;;;;;;;4952773;28;20432;-80
2022/01/29 06:34:03;;;;;;;54.53;33.07;;;;;;;;;;4968648;28;21165;-80
2022/01/29 06:36:29;;;;;;;70.50;37.30;;;;;;;;;;4969999;28;20434;-80
2022/01/29 06:38:56;;;;;;;64.40;36.53;;;;;;;;;;4956420;28;20442;-80
2022/01/29 06:41:22;;;;;;;66.47;36.37;;;;;;;;;;4953436;28;21236;-80
2022/01/29 06:43:48;;;;;;;62.55;35.28;;;;;;;;;;4954540;28;20460;-79
2022/01/29 06:46:14;;;;;;;60.83;33.13;;;;;;;;;;4952171;28;20925;-79
2022/01/29 06:48:40;;;;;;;55.40;32.77;;;;;;;;;;4956838;28;20426;-79
2022/01/29 06:51:06;;;;;;;55.37;32.60;;;;;;;;;;4954272;28;20433;-80
2022/01/29 06:53:32;;;;;;;57.20;33.27;;;;;;;;;;4951626;28;21037;-80
2022/01/29 06:55:59;;;;;;;61.70;33.73;;;;;;;;;;4951218;28;20431;-81
2022/01/29 06:58:25;;;;;;;65.77;36.87;;;;;;;;;;4953504;28;20438;-81
2022/01/29 07:00:51;;;;;;;63.60;35.27;;;;;;;;;;4972067;28;21364;-81
2022/01/29 07:03:17;;;;;;;64.63;37.67;;;;;;;;;;4953221;28;20502;-80
2022/01/29 07:05:43;;;;;;;59.45;34.20;;;;;;;;;;4956110;28;20488;-80
2022/01/29 07:08:09;;;;;;;82.40;40.70;;;;;;;;;;4956572;28;20179;-80
2022/01/29 07:10:37;;;;;;;80.18;39.85;;;;;;;;;;4956573;28;20457;-81
2022/01/29 07:13:03;;;;;;;61.70;34.27;;;;;;;;;;4970416;28;20182;-80
2022/01/29 07:15:29;;;;;;;88.40;43.93;;;;;;;;;;4951243;28;20490;-80
2022/01/29 07:17:55;;;;;;;72.90;38.70;;;;;;;;;;4953672;28;21129;-79
2022/01/29 07:20:22;;;;;;;87.17;42.90;;;;;;;;;;4956690;28;20270;-80
2022/01/29 07:22:48;;;;;;;80.57;42.33;;;;;;;;;;4955520;28;20430;-80
2022/01/29 07:25:14;;;;;;;62.58;35.75;;;;;;;;;;4953667;28;21572;-81
2022/01/29 07:27:40;;;;;;;78.47;40.73;;;;;;;;;;4953270;28;20939;-80
2022/01/29 07:30:07;;;;;;;99.40;45.37;;;;;;;;;;4949656;28;20422;-80
2022/01/29 07:32:33;;;;;;;75.03;39.03;;;;;;;;;;4954012;28;20430;-79
2022/01/29 07:34:59;;;;;;;99.80;45.20;;;;;;;;;;4955471;28;20485;-81
2022/01/29 07:37:25;;;;;;;87.53;42.37;;;;;;;;;;4954906;28;20423;-80
2022/01/29 07:39:52;;;;;;;88.57;43.37;;;;;;;;;;4950763;28;20421;-80
2022/01/29 07:42:18;;;;;;;178.02;52.03;;;;;;;;;;4951512;28;20521;-80
2022/01/29 07:44:44;;;;;;;72.40;39.25;;;;;;;;;;4956616;28;20753;-81
2022/01/29 07:47:10;;;;;;;63.30;35.88;;;;;;;;;;4953121;28;20179;-80
2022/01/29 07:49:36;;;;;;;83.18;42.05;;;;;;;;;;4952950;28;20895;-80
2022/01/29 07:52:02;;;;;;;68.45;38.70;;;;;;;;;;4951238;28;20257;-80
2022/01/29 07:54:28;;;;;;;65.32;37.15;;;;;;;;;;4953573;28;20199;-80
2022/01/29 07:56:54;;;;;;;65.45;37.33;;;;;;;;;;4954036;28;20178;-80
2022/01/29 07:59:20;;;;;;;75.30;40.70;;;;;;;;;;4952163;28;20237;-81
2022/01/29 08:01:47;;;;;;;69.38;38.45;;;;;;;;;;4952622;28;20427;-81
2022/01/29 08:04:13;;;;;;;70.87;40.70;;;;;;;;;;4946496;28;20175;-81
2022/01/29 08:06:39;;;;;;;66.50;38.63;;;;;;;;;;4956263;28;20433;-80
2022/01/29 08:09:08;;;;;;;66.50;38.30;;;;;;;;;;4953116;28;20434;-80
2022/01/29 08:11:34;;;;;;;59.30;37.03;;;;;;;;;;4954578;28;20484;-80
2022/01/29 08:14:00;;;;;;;64.53;38.57;;;;;;;;;;4954244;28;20450;-80
2022/01/29 08:16:29;;;;;;;60.93;36.13;;;;;;;;;;4958950;28;20445;-80
2022/01/29 08:18:58;;;;;;;59.37;35.90;;;;;;;;;;4970658;28;20418;-81
2022/01/29 08:21:25;;;;;;;54.60;34.10;;;;;;;;;;4961290;28;20438;-79
2022/01/29 08:23:51;;;;;;;48.60;29.90;;;;;;;;;;4952367;28;20438;-80
2022/01/29 08:26:17;;;;;;;49.80;30.27;;;;;;;;;;4957515;28;20434;-80
2022/01/29 08:28:44;;;;;;;59.73;32.77;;;;;;;;;;4954473;28;20873;-80
2022/01/29 08:31:17;;;;;;;56.17;33.87;;;;;;;;;;4978176;28;20541;-80
2022/01/29 08:33:52;;;;;;;50.90;30.73;;;;;;;;;;4971529;28;21389;-81
2022/01/29 08:36:23;;;;;;;55.03;33.07;;;;;;;;;;4969513;28;20414;-81
2022/01/29 08:38:52;;;;;;;52.97;31.40;;;;;;;;;;4983428;28;20993;-81
2022/01/29 08:41:23;;;;;;;53.37;32.47;;;;;;;;;;4975715;28;20521;-81
2022/01/29 08:43:50;;;;;;;56.27;32.20;;;;;;;;;;4973133;28;20434;-81
2022/01/29 08:46:24;;;;;;;47.43;29.97;;;;;;;;;;4973955;28;20767;-81
2022/01/29 08:49:00;;;;;;;45.67;28.77;;;;;;;;;;4974527;28;20437;-81
2022/01/29 08:51:37;;;;;;;;;;;;;;;;;;;;;
2022/01/29 08:54:05;;;;;;;56.10;31.30;;;;;;;;;;4973871;28;20457;-80
2022/01/29 08:56:31;;;;;;;51.63;30.07;;;;;;;;;;4967532;28;21745;-82
2022/01/29 08:58:58;;;;;;;51.53;31.67;;;;;;;;;;4952167;28;20434;-81
2022/01/29 09:01:29;;;;;;;48.83;28.03;;;;;;;;;;4958773;28;20442;-80
2022/01/29 09:03:55;;;;;;;44.13;27.73;;;;;;;;;;4966968;28;20437;-80
2022/01/29 09:06:24;;;;;;;52.37;30.83;;;;;;;;;;4984564;28;20589;-80
2022/01/29 09:08:52;;;;;;;50.03;28.87;;;;;;;;;;4954295;28;20502;-80
2022/01/29 09:11:22;;;;;;;49.43;28.70;;;;;;;;;;4969296;28;20460;-81
2022/01/29 09:13:57;;;;;;;46.00;28.30;;;;;;;;;;4971633;28;20454;-81
2022/01/29 09:16:26;;;;;;;51.07;29.87;;;;;;;;;;4970034;28;20468;-81
2022/01/29 09:18:53;;;;;;;51.10;30.60;;;;;;;;;;4966965;28;20438;-80
2022/01/29 09:21:20;;;;;;;58.53;34.47;;;;;;;;;;4969027;28;20438;-81
2022/01/29 09:23:46;;;;;;;57.47;35.20;;;;;;;;;;4982830;28;20438;-80
2022/01/29 09:26:13;;;;;;;57.20;31.20;;;;;;;;;;4966971;28;20441;-81
2022/01/29 09:28:40;;;;;;;52.27;31.57;;;;;;;;;;4966742;28;20431;-81
2022/01/29 09:31:15;;;;;;;59.03;35.00;;;;;;;;;;4964924;28;20426;-81
2022/01/29 09:33:45;;;;;;;52.67;32.03;;;;;;;;;;4969162;28;20434;-80
2022/01/29 09:36:21;;;;;;;59.13;34.03;;;;;;;;;;4968541;28;20485;-81
2022/01/29 09:38:47;;;;;;;59.97;32.73;;;;;;;;;;4964917;28;20440;-81
2022/01/29 09:41:15;;;;;;;55.67;32.20;;;;;;;;;;4966559;28;20414;-82
2022/01/29 09:43:43;;;;;;;57.40;33.47;;;;;;;;;;4952477;28;20492;-80
2022/01/29 09:46:10;;;;;;;57.20;30.53;;;;;;;;;;4952669;28;20446;-81
2022/01/29 09:48:38;;;;;;;51.23;30.33;;;;;;;;;;4956509;28;20947;-81
2022/01/29 09:51:12;;;;;;;58.00;31.63;;;;;;;;;;4962165;28;20422;-80
2022/01/29 09:53:45;;;;;;;57.17;32.03;;;;;;;;;;4962633;28;20430;-80
2022/01/29 09:56:16;;;;;;;53.63;30.80;;;;;;;;;;4977653;28;21167;-85
2022/01/29 09:58:52;;;;;;;53.13;32.63;;;;;;;;;;4983517;28;20498;-80
2022/01/29 10:01:22;;;;;;;53.30;32.50;;;;;;;;;;4965957;28;20417;-81
2022/01/29 10:04:04;;;;;;;53.93;32.30;;;;;;;;;;4954064;28;20547;-81
2022/01/29 10:06:31;;;;;;;51.10;30.10;;;;;;;;;;4952488;28;20641;-82
2022/01/29 10:08:59;;;;;;;55.10;32.33;;;;;;;;;;4949120;28;20437;-81
2022/01/29 10:11:27;;;;;;;58.77;31.63;;;;;;;;;;4953430;28;20429;-81
2022/01/29 10:13:58;;;;;;;54.20;31.63;;;;;;;;;;4957540;28;20460;-81
2022/01/29 10:16:31;;;;;;;49.53;30.13;;;;;;;;;;4963710;28;20422;-82
2022/01/29 10:19:11;;;;;;;53.00;30.70;;;;;;;;;;4969917;28;20895;-81
2022/01/29 10:21:46;;;;;;;49.60;29.63;;;;;;;;;;4967891;28;20414;-79
2022/01/29 10:24:21;;;;;;;46.50;28.40;;;;;;;;;;4968903;28;20603;-80
2022/01/29 10:26:49;;;;;;;46.10;28.43;;;;;;;;;;4982193;28;20894;-80
2022/01/29 10:29:26;;;;;;;45.97;27.30;;;;;;;;;;4962960;28;20413;-81
2022/01/29 10:31:54;;;;;;;44.37;27.00;;;;;;;;;;4956191;28;21347;-81
2022/01/29 10:34:27;;;;;;;45.40;26.60;;;;;;;;;;4954938;28;20497;-81
2022/01/29 10:37:12;;;;;;;49.43;29.80;;;;;;;;;;4954666;28;20557;-81
2022/01/29 10:39:39;;;;;;;50.63;29.47;;;;;;;;;;4968062;28;21327;-82
2022/01/29 10:42:24;;;;;;;47.80;28.00;;;;;;;;;;4958501;28;20433;-81
2022/01/29 10:44:55;;;;;;;45.00;27.87;;;;;;;;;;4956840;28;20552;-81
2022/01/29 10:47:21;;;;;;;43.73;24.50;;;;;;;;;;4954389;28;20430;-81
2022/01/29 10:49:55;;;;;;;42.60;25.97;;;;;;;;;;4956494;28;20542;-80
2022/01/29 10:52:29;;;;;;;43.33;26.70;;;;;;;;;;4953576;28;20430;-80
2022/01/29 10:55:00;;;;;;;38.63;24.63;;;;;;;;;;4956576;28;20523;-81
2022/01/29 10:57:39;;;;;;;41.53;26.10;;;;;;;;;;4953679;28;20411;-81
2022/01/29 11:00:18;;;;;;;40.73;22.87;;;;;;;;;;4953760;28;20812;-81
2022/01/29 11:02:44;;;;;;;38.83;25.07;;;;;;;;;;4954413;28;21298;-80
2022/01/29 11:05:11;;;;;;;37.83;24.63;;;;;;;;;;4956020;28;20428;-80
2022/01/29 11:07:37;;;;;;;34.03;21.93;;;;;;;;;;4956031;28;20509;-81
2022/01/29 11:10:05;;;;;;;35.27;22.37;;;;;;;;;;4952785;28;20449;-81
2022/01/29 11:12:32;;;;;;;37.83;23.47;;;;;;;;;;4952755;28;21337;-80
2022/01/29 11:14:59;;;;;;;36.97;22.20;;;;;;;;;;4953691;28;20450;-80
2022/01/29 11:17:26;;;;;;;34.63;22.00;;;;;;;;;;4956909;28;20422;-81
2022/01/29 11:19:52;;;;;;;37.33;22.33;;;;;;;;;;4971687;28;20411;-81
2022/01/29 11:22:20;;;;;;;37.07;22.70;;;;;;;;;;4954976;28;20426;-80
2022/01/29 11:24:47;;;;;;;34.40;21.50;;;;;;;;;;4958178;28;20461;-80
2022/01/29 11:27:20;;;;;;;38.80;23.63;;;;;;;;;;4952082;28;20672;-80
2022/01/29 11:29:57;;;;;;;39.93;25.00;;;;;;;;;;4955364;28;20422;-80
2022/01/29 11:32:23;;;;;;;39.23;23.30;;;;;;;;;;4955272;28;21921;-80
2022/01/29 11:35:08;;;;;;;45.27;24.17;;;;;;;;;;4953551;28;20446;-80
2022/01/29 11:37:37;;;;;;;40.07;24.20;;;;;;;;;;4954074;28;20410;-80
2022/01/29 11:40:11;;;;;;;36.80;22.73;;;;;;;;;;4956360;28;20417;-80
2022/01/29 11:42:37;;;;;;;41.73;23.83;;;;;;;;;;4954842;28;20433;-81
2022/01/29 11:45:22;;;;;;;38.37;23.87;;;;;;;;;;4955990;28;21384;-81
2022/01/29 11:47:48;;;;;;;41.03;24.83;;;;;;;;;;4954870;28;20513;-81
2022/01/29 11:50:20;;;;;;;41.10;24.67;;;;;;;;;;4955580;28;20548;-81
2022/01/29 11:52:55;;;;;;;37.93;24.43;;;;;;;;;;4956686;28;21033;-80
2022/01/29 11:55:41;;;;;;;37.83;23.97;;;;;;;;;;4950531;28;20450;-81
2022/01/29 11:58:16;;;;;;;37.23;22.93;;;;;;;;;;4952271;28;20425;-81
2022/01/29 12:00:44;;;;;;;41.13;26.27;;;;;;;;;;4969905;28;20425;-81
2022/01/29 12:03:29;;;;;;;40.63;24.33;;;;;;;;;;4952985;28;20916;-81
2022/01/29 12:09:09;;;;;;;41.43;25.37;;;;;;;;;;4958015;28;21074;-81
2022/01/29 12:11:41;;;;;;;39.87;24.90;;;;;;;;;;4955175;28;20544;-80
2022/01/29 12:14:17;;;;;;;40.47;24.47;;;;;;;;;;4963591;28;20569;-81
2022/01/29 12:16:47;;;;;;;39.40;24.43;;;;;;;;;;4969435;28;20468;-80
2022/01/29 12:19:32;;;;;;;38.77;25.23;;;;;;;;;;4955636;28;21332;-81
2022/01/29 12:21:58;;;;;;;40.17;23.90;;;;;;;;;;4970664;28;20428;-81
2022/01/29 12:24:24;;;;;;;41.87;25.03;;;;;;;;;;4952055;28;21629;-81
2022/01/29 12:26:54;;;;;;;38.57;24.80;;;;;;;;;;4949111;28;20435;-81
2022/01/29 12:29:28;;;;;;;41.33;25.00;;;;;;;;;;4963509;28;20930;-81
2022/01/29 12:32:00;;;;;;;43.20;24.97;;;;;;;;;;4970041;28;20772;-82
2022/01/29 12:34:28;;;;;;;37.97;23.73;;;;;;;;;;4963282;28;20485;-82
2022/01/29 12:37:12;;;;;;;39.13;24.10;;;;;;;;;;4971953;28;20448;-82
2022/01/29 12:39:44;;;;;;;39.13;24.20;;;;;;;;;;4966670;28;20436;-81
2022/01/29 12:42:29;;;;;;;39.80;23.20;;;;;;;;;;4968328;28;20426;-82
2022/01/29 12:45:00;;;;;;;45.63;26.70;;;;;;;;;;4972131;28;21064;-82
2022/01/29 12:47:52;;;;;;;44.93;26.73;;;;;;;;;;4984299;28;20433;-82
2022/01/29 12:50:21;;;;;;;43.00;24.90;;;;;;;;;;4954867;28;20550;-80
2022/01/29 12:52:48;;;;;;;41.70;25.70;;;;;;;;;;4952839;28;21293;-81
2022/01/29 12:55:14;;;;;;;40.33;24.60;;;;;;;;;;4953193;28;20466;-82
2022/01/29 12:57:48;;;;;;;38.30;24.37;;;;;;;;;;4961061;28;20457;-82
2022/01/29 13:00:24;;;;;;;44.43;26.93;;;;;;;;;;4986029;28;20446;-83
2022/01/29 13:05:57;;;;;;;;;;;;;;;;;;;;;
2022/01/29 13:08:29;;;;;;;37.83;24.97;;;;;;;;;;4968816;28;21507;-83
2022/01/29 13:11:06;;;;;;;39.73;24.77;;;;;;;;;;4967552;28;20414;-81
2022/01/29 13:13:34;;;;;;;38.97;24.60;;;;;;;;;;4966987;28;20179;-81
2022/01/29 13:16:01;;;;;;;38.07;23.33;;;;;;;;;;4977202;28;20202;-82
2022/01/29 13:18:28;;;;;;;40.57;25.23;;;;;;;;;;4968976;28;20182;-81
2022/01/29 13:20:55;;;;;;;37.03;24.13;;;;;;;;;;4976723;28;20242;-82
2022/01/29 13:23:21;;;;;;;35.23;22.20;;;;;;;;;;4987512;28;20186;-82
2022/01/29 13:25:48;;;;;;;36.10;22.90;;;;;;;;;;4975228;28;20178;-82
2022/01/29 13:28:26;;;;;;;34.40;22.47;;;;;;;;;;4952662;28;20444;-83
2022/01/29 13:31:14;;;;;;;35.43;23.20;;;;;;;;;;4990316;28;20195;-83
2022/01/29 13:33:40;;;;;;;35.67;22.63;;;;;;;;;;4972196;28;20190;-83
2022/01/29 13:36:07;;;;;;;38.17;22.57;;;;;;;;;;4948098;28;20203;-82
2022/01/29 13:38:39;;;;;;;34.53;22.50;;;;;;;;;;4951886;28;20724;-82
2022/01/29 13:41:05;;;;;;;31.83;21.43;;;;;;;;;;4946508;28;20187;-82
2022/01/29 13:43:33;;;;;;;35.83;22.30;;;;;;;;;;4949286;28;20186;-82
2022/01/29 13:46:07;;;;;;;39.53;25.53;;;;;;;;;;4949251;28;20187;-81
2022/01/29 13:48:55;;;;;;;32.57;21.50;;;;;;;;;;4947081;28;20472;-82
2022/01/29 13:51:34;;;;;;;35.67;23.30;;;;;;;;;;4949125;28;20186;-81
2022/01/29 13:54:06;;;;;;;37.73;24.17;;;;;;;;;;4948919;28;20476;-82
2022/01/29 13:56:34;;;;;;;33.20;21.73;;;;;;;;;;4961270;28;21001;-82
2022/01/29 13:59:01;;;;;;;30.30;20.70;;;;;;;;;;4953494;28;21262;-82
2022/01/29 14:01:36;;;;;;;30.03;20.60;;;;;;;;;;4952535;28;20187;-81
2022/01/29 14:04:03;;;;;;;29.50;19.93;;;;;;;;;;4953019;28;20194;-81
2022/01/29 14:06:38;;;;;;;33.07;22.13;;;;;;;;;;4948917;28;20186;-81
2022/01/29 14:09:20;;;;;;;30.93;21.23;;;;;;;;;;4950091;28;20193;-81
2022/01/29 14:11:55;;;;;;;33.63;21.33;;;;;;;;;;4954989;28;20719;-82
2022/01/29 14:14:22;;;;;;;32.17;23.17;;;;;;;;;;4953164;28;20202;-81
2022/01/29 14:16:49;;;;;;;36.07;25.17;;;;;;;;;;4970704;28;20170;-81
2022/01/29 14:19:18;;;;;;;33.00;22.67;;;;;;;;;;4953247;28;20175;-81
2022/01/29 14:21:46;;;;;;;34.20;22.27;;;;;;;;;;4946040;28;20698;-81
2022/01/29 14:24:12;;;;;;;32.93;21.30;;;;;;;;;;4949492;28;20194;-80
2022/01/29 14:26:39;;;;;;;33.50;21.50;;;;;;;;;;4947230;28;20187;-81
2022/01/29 14:29:12;;;;;;;34.93;21.57;;;;;;;;;;4953651;28;20183;-81
2022/01/29 14:31:46;;;;;;;29.33;20.80;;;;;;;;;;4962143;28;20210;-83
2022/01/29 14:34:18;;;;;;;34.63;21.70;;;;;;;;;;4954864;28;20246;-82
2022/01/29 14:36:44;;;;;;;32.73;21.57;;;;;;;;;;4969963;28;20202;-81
2022/01/29 14:39:11;;;;;;;31.27;20.77;;;;;;;;;;4950345;28;20175;-82
2022/01/29 14:41:42;;;;;;;29.97;20.87;;;;;;;;;;4950479;28;20187;-81
2022/01/29 14:44:08;;;;;;;34.77;21.20;;;;;;;;;;4946575;28;20206;-82
2022/01/29 14:46:38;;;;;;;30.30;21.13;;;;;;;;;;4953023;28;20175;-81